KPYM

Plymouth Municipal Airport

Plymouth, Massachusetts, USA
METAR KPYM 191652Z AUTO 03017G23KT 10SM BKN019 OVC025 21/16 A3002 RMK AO2 SLP166 T02060161
Observed Flight Rules
Aug-19 @ 16:52 UTC (21 minutes ago) Marginal Visual Flight Rules
Wind Visibility Clouds
30° at 17 knots
 Gusting to 23 knots
10 miles
  • Broken at 1,900' AGL
  • Overcast at 2,500' AGL
Temperatures Readings
Current 21°C / 70°F
Dewpoint 16°C / 61°F
Humidity 73%
Altimeter 30.02" Hg
Pressure 1016.6 hPa
Elevation 43
METAR KPYM 191652Z AUTO 03017G23KT 10SM BKN019 OVC025 21/16 A3002 RMK AO2 SLP166 T02060161
Observed Flight Rules
Aug-19 @ 16:52 UTC
(21 minutes ago)
MVFR
Wind Visibility
30° at 17 knots
 Gusting to 23 knots
10 miles
Clouds
  • Broken at 1,900' AGL
  • Overcast at 2,500' AGL
Temperature Dewpoint
21°C / 70°F 16°C / 61°F
Humidity Altimeter Pressure
73% 30.02" Hg 1016.6 hPa